sensor_id;sensor_type;location;lat;lon;timestamp;temperature;humidity
53498;DHT22;39382;47.168;16.008;2022-08-21T00:01:30;17.50;99.90
53498;DHT22;39382;47.168;16.008;2022-08-21T00:03:56;17.50;99.90
53498;DHT22;39382;47.168;16.008;2022-08-21T00:06:22;17.60;99.90
53498;DHT22;39382;47.168;16.008;2022-08-21T00:08:50;17.60;99.90
53498;DHT22;39382;47.168;16.008;2022-08-21T00:11:16;17.70;99.90
53498;DHT22;39382;47.168;16.008;2022-08-21T00:13:41;17.70;99.90
53498;DHT22;39382;47.168;16.008;2022-08-21T00:16:07;17.80;99.90
53498;DHT22;39382;47.168;16.008;2022-08-21T00:18:33;17.90;99.90
53498;DHT22;39382;47.168;16.008;2022-08-21T00:20:59;17.90;99.90
53498;DHT22;39382;47.168;16.008;2022-08-21T00:23:25;17.90;99.90
53498;DHT22;39382;47.168;16.008;2022-08-21T00:25:50;18.00;99.90
53498;DHT22;39382;47.168;16.008;2022-08-21T00:28:16;18.10;99.90
53498;DHT22;39382;47.168;16.008;2022-08-21T00:30:43;18.20;99.90
53498;DHT22;39382;47.168;16.008;2022-08-21T00:33:10;18.20;99.90
53498;DHT22;39382;47.168;16.008;2022-08-21T00:35:38;18.30;99.90
53498;DHT22;39382;47.168;16.008;2022-08-21T00:38:07;18.40;99.90
53498;DHT22;39382;47.168;16.008;2022-08-21T00:40:47;18.40;99.90
53498;DHT22;39382;47.168;16.008;2022-08-21T00:43:16;18.50;99.90
53498;DHT22;39382;47.168;16.008;2022-08-21T00:45:43;18.60;99.90
53498;DHT22;39382;47.168;16.008;2022-08-21T00:48:09;18.60;99.90
53498;DHT22;39382;47.168;16.008;2022-08-21T00:50:40;18.60;99.90
53498;DHT22;39382;47.168;16.008;2022-08-21T00:53:08;18.60;99.90
53498;DHT22;39382;47.168;16.008;2022-08-21T00:55:36;18.40;99.90
53498;DHT22;39382;47.168;16.008;2022-08-21T00:58:04;18.40;99.90
53498;DHT22;39382;47.168;16.008;2022-08-21T01:00:33;18.30;99.90
53498;DHT22;39382;47.168;16.008;2022-08-21T01:03:01;18.20;99.90
53498;DHT22;39382;47.168;16.008;2022-08-21T01:05:27;18.10;99.90
53498;DHT22;39382;47.168;16.008;2022-08-21T01:07:54;18.10;99.90
53498;DHT22;39382;47.168;16.008;2022-08-21T01:10:22;18.00;99.90
53498;DHT22;39382;47.168;16.008;2022-08-21T01:12:50;18.00;99.90
53498;DHT22;39382;47.168;16.008;2022-08-21T01:15:17;18.00;99.90
53498;DHT22;39382;47.168;16.008;2022-08-21T01:17:43;18.00;99.90
53498;DHT22;39382;47.168;16.008;2022-08-21T01:20:11;17.90;99.90
53498;DHT22;39382;47.168;16.008;2022-08-21T01:22:37;17.90;99.90
53498;DHT22;39382;47.168;16.008;2022-08-21T01:25:04;17.90;99.90
53498;DHT22;39382;47.168;16.008;2022-08-21T01:27:30;17.90;99.90
53498;DHT22;39382;47.168;16.008;2022-08-21T01:32:34;17.90;99.90
53498;DHT22;39382;47.168;16.008;2022-08-21T01:35:01;17.90;99.90
53498;DHT22;39382;47.168;16.008;2022-08-21T01:37:27;17.80;99.90
53498;DHT22;39382;47.168;16.008;2022-08-21T01:39:52;17.80;99.90
53498;DHT22;39382;47.168;16.008;2022-08-21T01:42:18;17.90;99.90
53498;DHT22;39382;47.168;16.008;2022-08-21T01:44:44;18.10;99.90
53498;DHT22;39382;47.168;16.008;2022-08-21T01:47:12;18.10;99.90
53498;DHT22;39382;47.168;16.008;2022-08-21T01:49:39;18.10;99.90
53498;DHT22;39382;47.168;16.008;2022-08-21T01:52:06;18.00;99.90
53498;DHT22;39382;47.168;16.008;2022-08-21T01:54:32;18.00;99.90
53498;DHT22;39382;47.168;16.008;2022-08-21T01:56:58;18.10;99.90
53498;DHT22;39382;47.168;16.008;2022-08-21T01:59:25;18.10;99.90
53498;DHT22;39382;47.168;16.008;2022-08-21T02:01:51;18.00;99.90
53498;DHT22;39382;47.168;16.008;2022-08-21T02:04:19;18.00;99.90
53498;DHT22;39382;47.168;16.008;2022-08-21T02:06:45;17.90;99.90
53498;DHT22;39382;47.168;16.008;2022-08-21T02:09:12;17.90;99.90
53498;DHT22;39382;47.168;16.008;2022-08-21T02:11:38;17.80;99.90
53498;DHT22;39382;47.168;16.008;2022-08-21T02:14:08;17.80;99.90
53498;DHT22;39382;47.168;16.008;2022-08-21T02:16:35;17.70;99.90
53498;DHT22;39382;47.168;16.008;2022-08-21T02:19:00;17.70;99.90
53498;DHT22;39382;47.168;16.008;2022-08-21T02:21:26;17.60;99.90
53498;DHT22;39382;47.168;16.008;2022-08-21T02:23:52;17.70;99.90
53498;DHT22;39382;47.168;16.008;2022-08-21T02:26:17;17.70;99.90
53498;DHT22;39382;47.168;16.008;2022-08-21T02:28:43;17.70;99.90
53498;DHT22;39382;47.168;16.008;2022-08-21T02:31:09;17.70;99.90
53498;DHT22;39382;47.168;16.008;2022-08-21T02:33:35;17.80;99.90
53498;DHT22;39382;47.168;16.008;2022-08-21T02:36:02;17.80;99.90
53498;DHT22;39382;47.168;16.008;2022-08-21T02:38:32;17.90;99.90
53498;DHT22;39382;47.168;16.008;2022-08-21T02:40:59;17.80;99.90
53498;DHT22;39382;47.168;16.008;2022-08-21T02:43:27;17.80;99.90
53498;DHT22;39382;47.168;16.008;2022-08-21T02:45:54;17.70;99.90
53498;DHT22;39382;47.168;16.008;2022-08-21T02:48:23;17.70;99.90
53498;DHT22;39382;47.168;16.008;2022-08-21T02:50:53;17.70;99.90
53498;DHT22;39382;47.168;16.008;2022-08-21T02:53:19;17.60;99.90
53498;DHT22;39382;47.168;16.008;2022-08-21T02:55:47;17.60;99.90
53498;DHT22;39382;47.168;16.008;2022-08-21T02:58:15;17.50;99.90
53498;DHT22;39382;47.168;16.008;2022-08-21T03:00:42;17.40;99.90
53498;DHT22;39382;47.168;16.008;2022-08-21T03:03:09;17.40;99.90
53498;DHT22;39382;47.168;16.008;2022-08-21T03:05:36;17.20;99.90
53498;DHT22;39382;47.168;16.008;2022-08-21T03:08:07;17.10;99.90
53498;DHT22;39382;47.168;16.008;2022-08-21T03:10:37;17.10;99.90
53498;DHT22;39382;47.168;16.008;2022-08-21T03:13:05;16.90;99.90
53498;DHT22;39382;47.168;16.008;2022-08-21T03:15:31;16.80;99.90
53498;DHT22;39382;47.168;16.008;2022-08-21T03:17:56;16.80;99.90
53498;DHT22;39382;47.168;16.008;2022-08-21T03:20:25;16.80;99.90
53498;DHT22;39382;47.168;16.008;2022-08-21T03:22:52;16.70;99.90
53498;DHT22;39382;47.168;16.008;2022-08-21T03:25:19;16.70;99.90
53498;DHT22;39382;47.168;16.008;2022-08-21T03:27:46;16.70;99.90
53498;DHT22;39382;47.168;16.008;2022-08-21T03:30:17;16.70;99.90
53498;DHT22;39382;47.168;16.008;2022-08-21T03:32:42;16.60;99.90
53498;DHT22;39382;47.168;16.008;2022-08-21T03:35:09;16.60;99.90
53498;DHT22;39382;47.168;16.008;2022-08-21T03:37:35;16.60;99.90
53498;DHT22;39382;47.168;16.008;2022-08-21T03:40:03;16.50;99.90
53498;DHT22;39382;47.168;16.008;2022-08-21T03:42:29;16.50;99.90
53498;DHT22;39382;47.168;16.008;2022-08-21T03:44:55;16.50;99.90
53498;DHT22;39382;47.168;16.008;2022-08-21T03:47:20;16.40;99.90
53498;DHT22;39382;47.168;16.008;2022-08-21T03:49:47;16.40;99.90
53498;DHT22;39382;47.168;16.008;2022-08-21T03:52:13;16.40;99.90
53498;DHT22;39382;47.168;16.008;2022-08-21T03:54:39;16.30;99.90
53498;DHT22;39382;47.168;16.008;2022-08-21T03:57:06;16.30;99.90
53498;DHT22;39382;47.168;16.008;2022-08-21T03:59:32;16.30;99.90
53498;DHT22;39382;47.168;16.008;2022-08-21T04:02:00;16.20;99.90
53498;DHT22;39382;47.168;16.008;2022-08-21T04:04:28;16.20;99.90
53498;DHT22;39382;47.168;16.008;2022-08-21T04:06:55;16.20;99.90
53498;DHT22;39382;47.168;16.008;2022-08-21T04:09:21;16.10;99.90
53498;DHT22;39382;47.168;16.008;2022-08-21T04:11:47;16.10;99.90
53498;DHT22;39382;47.168;16.008;2022-08-21T04:14:14;16.60;99.90
53498;DHT22;39382;47.168;16.008;2022-08-21T04:16:40;17.40;99.90
53498;DHT22;39382;47.168;16.008;2022-08-21T04:19:07;18.00;99.90
53498;DHT22;39382;47.168;16.008;2022-08-21T04:21:33;18.40;99.90
53498;DHT22;39382;47.168;16.008;2022-08-21T04:23:59;18.70;99.90
53498;DHT22;39382;47.168;16.008;2022-08-21T04:26:25;18.70;99.90
53498;DHT22;39382;47.168;16.008;2022-08-21T04:28:52;18.70;99.90
53498;DHT22;39382;47.168;16.008;2022-08-21T04:31:18;18.80;99.90
53498;DHT22;39382;47.168;16.008;2022-08-21T04:33:43;19.00;99.90
53498;DHT22;39382;47.168;16.008;2022-08-21T04:36:10;19.00;99.90
53498;DHT22;39382;47.168;16.008;2022-08-21T04:38:37;19.00;99.90
53498;DHT22;39382;47.168;16.008;2022-08-21T04:41:03;19.20;99.90
53498;DHT22;39382;47.168;16.008;2022-08-21T04:43:30;19.20;99.90
53498;DHT22;39382;47.168;16.008;2022-08-21T04:45:56;19.20;99.90
53498;DHT22;39382;47.168;16.008;2022-08-21T04:48:23;19.20;99.90
53498;DHT22;39382;47.168;16.008;2022-08-21T04:51:01;19.30;99.90
53498;DHT22;39382;47.168;16.008;2022-08-21T04:53:34;19.30;99.90
53498;DHT22;39382;47.168;16.008;2022-08-21T04:56:06;19.20;99.90
53498;DHT22;39382;47.168;16.008;2022-08-21T04:58:35;19.10;99.90
53498;DHT22;39382;47.168;16.008;2022-08-21T05:01:03;19.10;99.90
53498;DHT22;39382;47.168;16.008;2022-08-21T05:03:30;18.90;99.90
53498;DHT22;39382;47.168;16.008;2022-08-21T05:05:58;18.70;99.90
53498;DHT22;39382;47.168;16.008;2022-08-21T05:08:26;18.70;99.90
53498;DHT22;39382;47.168;16.008;2022-08-21T05:10:52;18.50;99.90
53498;DHT22;39382;47.168;16.008;2022-08-21T05:13:18;18.50;99.90
53498;DHT22;39382;47.168;16.008;2022-08-21T05:15:44;18.50;99.90
53498;DHT22;39382;47.168;16.008;2022-08-21T05:18:10;18.50;99.90
53498;DHT22;39382;47.168;16.008;2022-08-21T05:20:36;18.80;99.90
53498;DHT22;39382;47.168;16.008;2022-08-21T05:23:07;18.90;99.90
53498;DHT22;39382;47.168;16.008;2022-08-21T05:25:33;18.70;99.90
53498;DHT22;39382;47.168;16.008;2022-08-21T05:27:59;18.50;99.90
53498;DHT22;39382;47.168;16.008;2022-08-21T05:30:25;18.30;99.90
53498;DHT22;39382;47.168;16.008;2022-08-21T05:32:59;18.30;99.90
53498;DHT22;39382;47.168;16.008;2022-08-21T05:35:26;18.20;99.90
53498;DHT22;39382;47.168;16.008;2022-08-21T05:37:52;18.10;99.90
53498;DHT22;39382;47.168;16.008;2022-08-21T05:40:18;18.00;99.90
53498;DHT22;39382;47.168;16.008;2022-08-21T05:42:44;17.90;99.90
53498;DHT22;39382;47.168;16.008;2022-08-21T05:45:10;17.90;99.90
53498;DHT22;39382;47.168;16.008;2022-08-21T05:47:35;17.90;99.90
53498;DHT22;39382;47.168;16.008;2022-08-21T05:50:02;17.90;99.90
53498;DHT22;39382;47.168;16.008;2022-08-21T05:52:28;18.00;99.90
53498;DHT22;39382;47.168;16.008;2022-08-21T05:54:53;18.00;99.90
53498;DHT22;39382;47.168;16.008;2022-08-21T05:57:20;18.10;99.90
53498;DHT22;39382;47.168;16.008;2022-08-21T05:59:47;18.20;99.90
53498;DHT22;39382;47.168;16.008;2022-08-21T06:02:13;18.30;99.90
53498;DHT22;39382;47.168;16.008;2022-08-21T06:04:39;18.40;99.90
53498;DHT22;39382;47.168;16.008;2022-08-21T06:07:05;18.50;99.90
53498;DHT22;39382;47.168;16.008;2022-08-21T06:09:30;18.60;99.90
53498;DHT22;39382;47.168;16.008;2022-08-21T06:11:56;18.70;99.90
53498;DHT22;39382;47.168;16.008;2022-08-21T06:14:22;18.90;99.90
53498;DHT22;39382;47.168;16.008;2022-08-21T06:16:47;19.00;99.90
53498;DHT22;39382;47.168;16.008;2022-08-21T06:19:13;19.20;99.90
53498;DHT22;39382;47.168;16.008;2022-08-21T06:21:39;19.30;99.90
53498;DHT22;39382;47.168;16.008;2022-08-21T06:24:05;19.40;99.90
53498;DHT22;39382;47.168;16.008;2022-08-21T06:26:32;19.50;99.90
53498;DHT22;39382;47.168;16.008;2022-08-21T06:28:58;19.50;99.90
53498;DHT22;39382;47.168;16.008;2022-08-21T06:31:26;19.50;99.90
53498;DHT22;39382;47.168;16.008;2022-08-21T06:33:52;19.60;99.90
53498;DHT22;39382;47.168;16.008;2022-08-21T06:36:18;19.70;99.90
53498;DHT22;39382;47.168;16.008;2022-08-21T06:38:46;19.80;99.90
53498;DHT22;39382;47.168;16.008;2022-08-21T06:41:12;19.80;99.90
53498;DHT22;39382;47.168;16.008;2022-08-21T06:43:37;19.90;99.90
53498;DHT22;39382;47.168;16.008;2022-08-21T06:46:03;20.00;99.90
53498;DHT22;39382;47.168;16.008;2022-08-21T06:48:29;20.10;99.90
53498;DHT22;39382;47.168;16.008;2022-08-21T06:51:01;20.20;99.90
53498;DHT22;39382;47.168;16.008;2022-08-21T06:53:26;20.30;99.90
53498;DHT22;39382;47.168;16.008;2022-08-21T06:55:52;20.30;99.90
53498;DHT22;39382;47.168;16.008;2022-08-21T06:58:18;20.40;99.90
53498;DHT22;39382;47.168;16.008;2022-08-21T07:00:47;20.40;99.90
53498;DHT22;39382;47.168;16.008;2022-08-21T07:03:25;20.40;99.90
53498;DHT22;39382;47.168;16.008;2022-08-21T07:05:51;20.50;99.90
53498;DHT22;39382;47.168;16.008;2022-08-21T07:08:17;20.50;99.90
53498;DHT22;39382;47.168;16.008;2022-08-21T07:10:43;20.60;99.90
53498;DHT22;39382;47.168;16.008;2022-08-21T07:13:09;20.60;99.90
53498;DHT22;39382;47.168;16.008;2022-08-21T07:15:35;20.80;99.90
53498;DHT22;39382;47.168;16.008;2022-08-21T07:18:01;20.90;99.90
53498;DHT22;39382;47.168;16.008;2022-08-21T07:20:28;20.90;99.90
53498;DHT22;39382;47.168;16.008;2022-08-21T07:22:55;21.00;99.90
53498;DHT22;39382;47.168;16.008;2022-08-21T07:25:21;21.10;99.90
53498;DHT22;39382;47.168;16.008;2022-08-21T07:27:47;21.20;99.90
53498;DHT22;39382;47.168;16.008;2022-08-21T07:30:12;21.40;99.90
53498;DHT22;39382;47.168;16.008;2022-08-21T07:32:38;21.40;99.90
53498;DHT22;39382;47.168;16.008;2022-08-21T07:35:04;21.50;99.90
53498;DHT22;39382;47.168;16.008;2022-08-21T07:37:30;21.60;99.90
53498;DHT22;39382;47.168;16.008;2022-08-21T07:39:55;21.70;99.90
53498;DHT22;39382;47.168;16.008;2022-08-21T07:42:21;21.80;99.90
53498;DHT22;39382;47.168;16.008;2022-08-21T07:44:47;21.90;99.90
53498;DHT22;39382;47.168;16.008;2022-08-21T07:47:13;21.90;99.90
53498;DHT22;39382;47.168;16.008;2022-08-21T07:49:38;21.90;99.90
53498;DHT22;39382;47.168;16.008;2022-08-21T07:52:05;21.90;99.90
53498;DHT22;39382;47.168;16.008;2022-08-21T07:54:31;21.90;99.90
53498;DHT22;39382;47.168;16.008;2022-08-21T07:56:56;22.00;99.90
53498;DHT22;39382;47.168;16.008;2022-08-21T07:59:22;22.00;99.90
53498;DHT22;39382;47.168;16.008;2022-08-21T08:01:48;22.10;99.90
53498;DHT22;39382;47.168;16.008;2022-08-21T08:04:13;22.10;99.90
53498;DHT22;39382;47.168;16.008;2022-08-21T08:06:41;22.20;99.90
53498;DHT22;39382;47.168;16.008;2022-08-21T08:09:06;22.20;99.90
53498;DHT22;39382;47.168;16.008;2022-08-21T08:11:32;22.20;99.90
53498;DHT22;39382;47.168;16.008;2022-08-21T08:13:59;22.30;99.90
53498;DHT22;39382;47.168;16.008;2022-08-21T08:16:25;22.30;99.90
53498;DHT22;39382;47.168;16.008;2022-08-21T08:18:51;22.30;99.90
53498;DHT22;39382;47.168;16.008;2022-08-21T08:21:17;22.20;99.90
53498;DHT22;39382;47.168;16.008;2022-08-21T08:23:46;22.20;99.90
53498;DHT22;39382;47.168;16.008;2022-08-21T08:26:12;22.20;99.90
53498;DHT22;39382;47.168;16.008;2022-08-21T08:28:37;22.20;99.90
53498;DHT22;39382;47.168;16.008;2022-08-21T08:31:04;22.10;99.90
53498;DHT22;39382;47.168;16.008;2022-08-21T08:33:30;22.00;99.90
53498;DHT22;39382;47.168;16.008;2022-08-21T08:35:55;22.00;99.90
53498;DHT22;39382;47.168;16.008;2022-08-21T08:38:23;22.00;99.90
53498;DHT22;39382;47.168;16.008;2022-08-21T08:40:55;22.10;99.90
53498;DHT22;39382;47.168;16.008;2022-08-21T08:43:27;22.10;99.90
53498;DHT22;39382;47.168;16.008;2022-08-21T08:45:54;22.10;99.90
53498;DHT22;39382;47.168;16.008;2022-08-21T08:48:49;22.10;99.90
53498;DHT22;39382;47.168;16.008;2022-08-21T08:51:28;22.20;99.90
53498;DHT22;39382;47.168;16.008;2022-08-21T08:54:00;22.20;99.90
53498;DHT22;39382;47.168;16.008;2022-08-21T08:56:30;22.20;99.90
53498;DHT22;39382;47.168;16.008;2022-08-21T08:59:03;22.20;99.90
53498;DHT22;39382;47.168;16.008;2022-08-21T09:01:32;22.30;99.90
53498;DHT22;39382;47.168;16.008;2022-08-21T09:03:57;22.30;99.90
53498;DHT22;39382;47.168;16.008;2022-08-21T09:06:49;22.50;99.90
53498;DHT22;39382;47.168;16.008;2022-08-21T09:12:09;22.60;99.90
53498;DHT22;39382;47.168;16.008;2022-08-21T09:21:01;23.00;99.30
53498;DHT22;39382;47.168;16.008;2022-08-21T09:26:23;23.30;98.70
53498;DHT22;39382;47.168;16.008;2022-08-21T09:28:54;23.40;98.50
53498;DHT22;39382;47.168;16.008;2022-08-21T09:31:29;23.50;98.80
53498;DHT22;39382;47.168;16.008;2022-08-21T09:34:24;23.60;98.50
53498;DHT22;39382;47.168;16.008;2022-08-21T09:36:50;23.80;97.80
53498;DHT22;39382;47.168;16.008;2022-08-21T09:39:31;23.90;98.10
53498;DHT22;39382;47.168;16.008;2022-08-21T09:42:05;23.90;96.10
53498;DHT22;39382;47.168;16.008;2022-08-21T09:44:35;24.00;96.20
53498;DHT22;39382;47.168;16.008;2022-08-21T09:47:07;23.90;95.00
53498;DHT22;39382;47.168;16.008;2022-08-21T09:49:37;24.10;95.20
53498;DHT22;39382;47.168;16.008;2022-08-21T09:52:15;24.20;96.20
53498;DHT22;39382;47.168;16.008;2022-08-21T09:54:45;24.40;94.20
53498;DHT22;39382;47.168;16.008;2022-08-21T09:57:37;24.50;93.50
53498;DHT22;39382;47.168;16.008;2022-08-21T10:00:28;24.70;92.60
53498;DHT22;39382;47.168;16.008;2022-08-21T10:03:17;24.70;91.70
53498;DHT22;39382;47.168;16.008;2022-08-21T10:06:19;24.60;91.20
53498;DHT22;39382;47.168;16.008;2022-08-21T10:08:45;24.70;91.00
53498;DHT22;39382;47.168;16.008;2022-08-21T10:11:14;24.80;90.20
53498;DHT22;39382;47.168;16.008;2022-08-21T10:14:01;24.80;87.40
53498;DHT22;39382;47.168;16.008;2022-08-21T10:16:58;24.80;87.70
53498;DHT22;39382;47.168;16.008;2022-08-21T10:19:55;24.90;86.60
53498;DHT22;39382;47.168;16.008;2022-08-21T10:25:52;25.20;85.30
53498;DHT22;39382;47.168;16.008;2022-08-21T10:34:37;25.40;82.90
53498;DHT22;39382;47.168;16.008;2022-08-21T10:39:58;25.70;82.80
53498;DHT22;39382;47.168;16.008;2022-08-21T10:42:44;25.70;81.00
53498;DHT22;39382;47.168;16.008;2022-08-21T10:48:06;25.70;81.50
53498;DHT22;39382;47.168;16.008;2022-08-21T10:55:51;25.60;79.00
53498;DHT22;39382;47.168;16.008;2022-08-21T10:58:34;25.70;80.30
53498;DHT22;39382;47.168;16.008;2022-08-21T11:01:54;25.40;79.30
53498;DHT22;39382;47.168;16.008;2022-08-21T11:04:16;25.40;79.70
53498;DHT22;39382;47.168;16.008;2022-08-21T11:06:47;25.30;79.40
53498;DHT22;39382;47.168;16.008;2022-08-21T11:09:18;25.20;81.30
53498;DHT22;39382;47.168;16.008;2022-08-21T11:12:05;24.90;82.40
53498;DHT22;39382;47.168;16.008;2022-08-21T11:15:00;24.80;81.50
53498;DHT22;39382;47.168;16.008;2022-08-21T11:17:35;24.80;82.30
53498;DHT22;39382;47.168;16.008;2022-08-21T11:20:17;24.80;83.90
53498;DHT22;39382;47.168;16.008;2022-08-21T11:22:56;24.90;82.50
53498;DHT22;39382;47.168;16.008;2022-08-21T11:25:35;24.90;80.60
53498;DHT22;39382;47.168;16.008;2022-08-21T11:28:54;25.00;81.00
53498;DHT22;39382;47.168;16.008;2022-08-21T11:31:17;24.90;79.70
53498;DHT22;39382;47.168;16.008;2022-08-21T11:34:21;25.00;80.60
53498;DHT22;39382;47.168;16.008;2022-08-21T11:37:13;25.10;80.00
53498;DHT22;39382;47.168;16.008;2022-08-21T11:51:00;26.00;80.70
53498;DHT22;39382;47.168;16.008;2022-08-21T11:53:36;26.10;77.50
53498;DHT22;39382;47.168;16.008;2022-08-21T11:56:12;26.20;75.80
53498;DHT22;39382;47.168;16.008;2022-08-21T11:58:54;26.30;75.50
53498;DHT22;39382;47.168;16.008;2022-08-21T12:01:27;26.40;75.00
53498;DHT22;39382;47.168;16.008;2022-08-21T12:06:36;26.50;74.40
53498;DHT22;39382;47.168;16.008;2022-08-21T12:09:08;26.50;75.90
53498;DHT22;39382;47.168;16.008;2022-08-21T12:11:47;26.50;75.30
53498;DHT22;39382;47.168;16.008;2022-08-21T12:14:16;26.40;74.20
53498;DHT22;39382;47.168;16.008;2022-08-21T12:16:45;26.30;75.40
53498;DHT22;39382;47.168;16.008;2022-08-21T12:19:29;26.40;73.80
53498;DHT22;39382;47.168;16.008;2022-08-21T12:29:36;26.70;84.00
53498;DHT22;39382;47.168;16.008;2022-08-21T12:34:57;26.60;73.60
53498;DHT22;39382;47.168;16.008;2022-08-21T12:37:48;26.40;73.30
53498;DHT22;39382;47.168;16.008;2022-08-21T12:40:40;26.30;74.20
53498;DHT22;39382;47.168;16.008;2022-08-21T12:43:18;26.30;72.90
53498;DHT22;39382;47.168;16.008;2022-08-21T12:45:47;26.10;72.90
53498;DHT22;39382;47.168;16.008;2022-08-21T12:50:57;25.90;73.80
53498;DHT22;39382;47.168;16.008;2022-08-21T12:53:36;25.90;73.60
53498;DHT22;39382;47.168;16.008;2022-08-21T12:56:10;25.90;74.10
53498;DHT22;39382;47.168;16.008;2022-08-21T12:58:36;25.80;74.20
53498;DHT22;39382;47.168;16.008;2022-08-21T13:01:07;25.90;74.70
53498;DHT22;39382;47.168;16.008;2022-08-21T13:03:38;25.90;74.40
53498;DHT22;39382;47.168;16.008;2022-08-21T13:06:05;25.80;74.40
53498;DHT22;39382;47.168;16.008;2022-08-21T13:08:35;25.80;75.30
53498;DHT22;39382;47.168;16.008;2022-08-21T13:11:05;25.70;76.40
53498;DHT22;39382;47.168;16.008;2022-08-21T13:13:32;25.60;77.40
53498;DHT22;39382;47.168;16.008;2022-08-21T13:16:02;25.70;77.30
53498;DHT22;39382;47.168;16.008;2022-08-21T13:18:32;25.60;77.00
53498;DHT22;39382;47.168;16.008;2022-08-21T13:21:07;25.60;77.70
53498;DHT22;39382;47.168;16.008;2022-08-21T13:23:33;25.50;78.10
53498;DHT22;39382;47.168;16.008;2022-08-21T13:25:59;25.50;78.30
53498;DHT22;39382;47.168;16.008;2022-08-21T13:28:34;25.40;78.70
53498;DHT22;39382;47.168;16.008;2022-08-21T13:31:06;25.50;79.10
53498;DHT22;39382;47.168;16.008;2022-08-21T13:33:34;25.40;77.80
53498;DHT22;39382;47.168;16.008;2022-08-21T13:38:30;25.30;77.10
53498;DHT22;39382;47.168;16.008;2022-08-21T13:41:02;25.30;77.90
53498;DHT22;39382;47.168;16.008;2022-08-21T13:43:34;25.20;78.40
53498;DHT22;39382;47.168;16.008;2022-08-21T13:46:01;25.20;78.00
53498;DHT22;39382;47.168;16.008;2022-08-21T13:48:30;25.20;78.00
53498;DHT22;39382;47.168;16.008;2022-08-21T13:50:57;25.30;78.20
53498;DHT22;39382;47.168;16.008;2022-08-21T13:53:33;25.50;78.20
53498;DHT22;39382;47.168;16.008;2022-08-21T13:56:01;25.40;79.40
53498;DHT22;39382;47.168;16.008;2022-08-21T13:58:32;25.30;77.90
53498;DHT22;39382;47.168;16.008;2022-08-21T14:01:00;25.30;78.40
53498;DHT22;39382;47.168;16.008;2022-08-21T14:03:27;25.20;78.20
53498;DHT22;39382;47.168;16.008;2022-08-21T14:05:55;25.10;78.50
53498;DHT22;39382;47.168;16.008;2022-08-21T14:08:33;25.10;79.20
53498;DHT22;39382;47.168;16.008;2022-08-21T14:11:00;25.10;78.50
53498;DHT22;39382;47.168;16.008;2022-08-21T14:16:01;25.00;79.60
53498;DHT22;39382;47.168;16.008;2022-08-21T14:18:27;25.00;80.10
53498;DHT22;39382;47.168;16.008;2022-08-21T14:21:08;25.00;80.30
53498;DHT22;39382;47.168;16.008;2022-08-21T14:23:36;25.00;79.20
53498;DHT22;39382;47.168;16.008;2022-08-21T14:26:03;24.90;79.80
53498;DHT22;39382;47.168;16.008;2022-08-21T14:28:38;24.70;79.00
53498;DHT22;39382;47.168;16.008;2022-08-21T14:31:16;24.70;79.30
53498;DHT22;39382;47.168;16.008;2022-08-21T14:33:42;24.50;79.50
53498;DHT22;39382;47.168;16.008;2022-08-21T14:36:08;24.40;79.40
53498;DHT22;39382;47.168;16.008;2022-08-21T14:38:37;24.40;80.10
53498;DHT22;39382;47.168;16.008;2022-08-21T14:41:15;24.40;79.90
53498;DHT22;39382;47.168;16.008;2022-08-21T14:43:42;24.40;80.60
53498;DHT22;39382;47.168;16.008;2022-08-21T14:46:08;24.50;79.90
53498;DHT22;39382;47.168;16.008;2022-08-21T14:48:34;24.40;80.30
53498;DHT22;39382;47.168;16.008;2022-08-21T14:51:00;24.40;80.40
53498;DHT22;39382;47.168;16.008;2022-08-21T14:53:25;24.40;80.70
53498;DHT22;39382;47.168;16.008;2022-08-21T14:55:51;24.40;81.00
53498;DHT22;39382;47.168;16.008;2022-08-21T14:58:38;24.30;80.70
53498;DHT22;39382;47.168;16.008;2022-08-21T15:01:07;24.40;80.50
53498;DHT22;39382;47.168;16.008;2022-08-21T15:03:33;24.40;81.30
53498;DHT22;39382;47.168;16.008;2022-08-21T15:06:00;24.50;80.50
53498;DHT22;39382;47.168;16.008;2022-08-21T15:08:26;24.60;80.30
53498;DHT22;39382;47.168;16.008;2022-08-21T15:10:52;24.60;80.80
53498;DHT22;39382;47.168;16.008;2022-08-21T15:13:19;24.70;79.40
53498;DHT22;39382;47.168;16.008;2022-08-21T15:15:47;24.70;80.00
53498;DHT22;39382;47.168;16.008;2022-08-21T15:18:14;24.80;80.40
53498;DHT22;39382;47.168;16.008;2022-08-21T15:20:40;24.80;80.20
53498;DHT22;39382;47.168;16.008;2022-08-21T15:23:06;24.80;81.00
53498;DHT22;39382;47.168;16.008;2022-08-21T15:25:33;24.80;80.10
53498;DHT22;39382;47.168;16.008;2022-08-21T15:27:59;24.70;79.80
53498;DHT22;39382;47.168;16.008;2022-08-21T15:30:27;24.60;80.40
53498;DHT22;39382;47.168;16.008;2022-08-21T15:32:53;24.70;81.10
53498;DHT22;39382;47.168;16.008;2022-08-21T15:35:18;24.70;80.70
53498;DHT22;39382;47.168;16.008;2022-08-21T15:37:44;24.70;80.40
53498;DHT22;39382;47.168;16.008;2022-08-21T15:40:10;24.70;78.40
53498;DHT22;39382;47.168;16.008;2022-08-21T15:42:38;24.60;76.20
53498;DHT22;39382;47.168;16.008;2022-08-21T15:45:05;24.60;72.80
53498;DHT22;39382;47.168;16.008;2022-08-21T15:47:34;24.50;73.10
53498;DHT22;39382;47.168;16.008;2022-08-21T15:52:27;24.20;71.60
53498;DHT22;39382;47.168;16.008;2022-08-21T15:54:53;24.10;73.20
53498;DHT22;39382;47.168;16.008;2022-08-21T15:57:22;24.10;73.30
53498;DHT22;39382;47.168;16.008;2022-08-21T15:59:50;24.00;72.00
53498;DHT22;39382;47.168;16.008;2022-08-21T16:02:24;23.90;72.70
53498;DHT22;39382;47.168;16.008;2022-08-21T16:04:51;23.80;71.80
53498;DHT22;39382;47.168;16.008;2022-08-21T16:07:16;23.70;71.80
53498;DHT22;39382;47.168;16.008;2022-08-21T16:09:42;23.70;71.80
53498;DHT22;39382;47.168;16.008;2022-08-21T16:12:11;23.70;72.00
53498;DHT22;39382;47.168;16.008;2022-08-21T16:14:39;23.60;76.80
53498;DHT22;39382;47.168;16.008;2022-08-21T16:17:06;23.60;73.10
53498;DHT22;39382;47.168;16.008;2022-08-21T16:19:32;23.50;73.20
53498;DHT22;39382;47.168;16.008;2022-08-21T16:21:58;23.50;97.50
53498;DHT22;39382;47.168;16.008;2022-08-21T16:24:24;23.30;76.50
53498;DHT22;39382;47.168;16.008;2022-08-21T16:26:50;23.30;76.90
53498;DHT22;39382;47.168;16.008;2022-08-21T16:29:17;23.30;78.10
53498;DHT22;39382;47.168;16.008;2022-08-21T16:31:43;23.20;78.50
53498;DHT22;39382;47.168;16.008;2022-08-21T16:34:11;23.20;78.00
53498;DHT22;39382;47.168;16.008;2022-08-21T16:36:39;23.20;78.40
53498;DHT22;39382;47.168;16.008;2022-08-21T16:39:04;23.10;78.50